Time;durP1;ratioP1;P1;durP2;ratioP2;P2;SDS_P1;SDS_P2;PMS_P1;PMS_P2;Temp;Humidity;BMP_temperature;BMP_pressure;BME280_temperature;BME280_humidity;BME280_pressure;Samples;Min_cycle;Max_cycle;Signal;HPM_P1;HPM_P2
2021/11/03 00:00:29;;;;;;;119.68;15.50;;;11.80;91.00;;;;;;5037439;28;20037;-61
2021/11/03 00:02:55;;;;;;;118.22;17.10;;;11.80;91.00;;;;;;5042200;28;20132;-60
2021/11/03 00:05:21;;;;;;;98.80;13.70;;;11.80;91.00;;;;;;5042583;28;20503;-61
2021/11/03 00:07:46;;;;;;;98.38;15.25;;;11.80;91.00;;;;;;5040286;28;20048;-61
2021/11/03 00:10:13;;;;;;;116.28;15.25;;;11.80;91.00;;;;;;5042761;28;20048;-61
2021/11/03 00:12:39;;;;;;;125.60;14.73;;;11.80;91.00;;;;;;5037116;28;20155;-61
2021/11/03 00:15:05;;;;;;;114.47;15.52;;;11.70;90.90;;;;;;5039498;28;20017;-61
2021/11/03 00:17:30;;;;;;;99.43;13.45;;;11.70;91.00;;;;;;5042061;28;20669;-61
2021/11/03 00:19:56;;;;;;;100.32;12.82;;;11.70;91.00;;;;;;5021510;28;20436;-61
2021/11/03 00:22:21;;;;;;;87.35;14.25;;;11.70;91.00;;;;;;5040525;28;20491;-60
2021/11/03 00:24:47;;;;;;;113.68;12.95;;;11.70;91.00;;;;;;5042225;28;20488;-61
2021/11/03 00:27:12;;;;;;;89.10;13.73;;;11.70;91.10;;;;;;5040175;28;20052;-61
2021/11/03 00:29:38;;;;;;;87.10;12.07;;;11.60;91.10;;;;;;5042644;28;20048;-61
2021/11/03 00:32:05;;;;;;;79.40;12.23;;;11.60;91.10;;;;;;5041200;28;21160;-61
2021/11/03 00:34:30;;;;;;;98.30;13.88;;;11.60;91.10;;;;;;5040997;28;20041;-60
2021/11/03 00:36:56;;;;;;;88.10;13.35;;;11.60;91.20;;;;;;5039421;28;20033;-61
2021/11/03 00:39:22;;;;;;;113.28;14.05;;;11.60;91.20;;;;;;5023570;28;20083;-60
2021/11/03 00:41:49;;;;;;;81.18;12.50;;;11.60;91.20;;;;;;5041158;28;20526;-61
2021/11/03 00:44:14;;;;;;;79.75;11.35;;;11.50;91.20;;;;;;5040862;28;20072;-61
2021/11/03 00:46:40;;;;;;;92.20;11.63;;;11.50;91.30;;;;;;5042167;28;20037;-61
2021/11/03 00:49:05;;;;;;;70.13;10.57;;;11.50;91.30;;;;;;5040603;28;20205;-60
2021/11/03 00:51:31;;;;;;;70.90;12.50;;;11.50;91.40;;;;;;5041581;28;20044;-61
2021/11/03 00:53:56;;;;;;;63.75;11.00;;;11.50;91.40;;;;;;5041179;28;20137;-61
2021/11/03 00:56:22;;;;;;;63.85;12.05;;;11.40;91.40;;;;;;5042157;28;20035;-61
2021/11/03 00:58:47;;;;;;;66.82;11.35;;;11.40;91.40;;;;;;5039540;28;20553;-61
2021/11/03 01:01:13;;;;;;;78.80;10.82;;;11.40;91.40;;;;;;5036509;28;20531;-61
2021/11/03 01:03:39;;;;;;;59.50;10.85;;;11.40;91.40;;;;;;5038299;28;20071;-61
2021/11/03 01:06:04;;;;;;;67.20;10.27;;;11.40;91.40;;;;;;5038449;28;20065;-61
2021/11/03 01:08:30;;;;;;;69.80;11.60;;;11.30;91.40;;;;;;5039640;28;20045;-60
2021/11/03 01:10:55;;;;;;;62.35;11.85;;;11.30;91.40;;;;;;5039973;28;20472;-61
2021/11/03 01:13:22;;;;;;;55.60;12.00;;;11.30;91.60;;;;;;5040764;28;20511;-62
2021/11/03 01:15:48;;;;;;;54.92;11.60;;;11.30;91.30;;;;;;5044465;28;20099;-61
2021/11/03 01:18:13;;;;;;;56.72;9.10;;;11.30;91.30;;;;;;5042066;28;20488;-61
2021/11/03 01:20:39;;;;;;;57.33;10.48;;;11.30;91.30;;;;;;5043059;28;20036;-61
2021/11/03 01:23:05;;;;;;;45.53;9.90;;;11.20;91.30;;;;;;5044190;28;20041;-61
2021/11/03 01:25:31;;;;;;;41.60;9.10;;;11.30;91.40;;;;;;5045087;28;20037;-61
2021/11/03 01:27:56;;;;;;;39.03;9.15;;;11.30;91.40;;;;;;5042525;28;20039;-61
2021/11/03 01:30:23;;;;;;;41.35;8.50;;;11.30;91.40;;;;;;5045343;28;20220;-60
2021/11/03 01:32:48;;;;;;;38.83;8.65;;;11.20;91.70;;;;;;5044088;28;20041;-61
2021/11/03 01:35:14;;;;;;;43.65;8.77;;;11.20;91.40;;;;;;5045261;28;20024;-61
2021/11/03 01:37:40;;;;;;;43.42;8.32;;;11.20;91.40;;;;;;5043738;28;20040;-61
2021/11/03 01:40:08;;;;;;;37.20;7.28;;;11.20;91.40;;;;;;5043584;28;20112;-61
2021/11/03 01:42:33;;;;;;;32.28;8.10;;;11.20;91.40;;;;;;5007850;28;20033;-61
2021/11/03 01:44:59;;;;;;;35.30;7.07;;;11.20;91.50;;;;;;5042173;28;20037;-61
2021/11/03 01:47:43;;;;;;;34.40;7.18;;;11.10;91.40;;;;;;5043809;28;20033;-61
2021/11/03 01:50:25;;;;;;;33.35;7.88;;;11.10;91.40;;;;;;5044740;28;20044;-61
2021/11/03 01:53:18;;;;;;;27.35;6.93;;;11.10;91.40;;;;;;5040935;28;20029;-61
2021/11/03 01:56:05;;;;;;;29.10;6.20;;;11.10;91.40;;;;;;5041646;28;20068;-61
2021/11/03 01:58:38;;;;;;;27.55;7.07;;;11.10;91.30;;;;;;5043428;28;20086;-61
2021/11/03 02:01:03;;;;;;;32.28;7.50;;;11.10;91.40;;;;;;5045768;28;20033;-61
2021/11/03 02:03:29;;;;;;;28.38;7.20;;;11.10;91.40;;;;;;5043824;28;20056;-60
2021/11/03 02:06:03;;;;;;;37.92;6.82;;;11.10;91.40;;;;;;5043832;28;20204;-61
2021/11/03 02:08:30;;;;;;;38.55;7.93;;;11.10;91.40;;;;;;5040501;28;20021;-61
2021/11/03 02:10:56;;;;;;;29.73;6.88;;;11.00;91.40;;;;;;5043074;28;20041;-61
2021/11/03 02:13:21;;;;;;;22.52;7.47;;;11.10;91.40;;;;;;5044697;28;20431;-61
2021/11/03 02:15:47;;;;;;;24.70;6.18;;;11.10;91.30;;;;;;5042436;28;20553;-60
2021/11/03 02:18:15;;;;;;;23.38;6.90;;;11.00;91.30;;;;;;5042393;28;20508;-61
2021/11/03 02:20:42;;;;;;;36.63;6.78;;;11.00;91.30;;;;;;5041715;28;20104;-60
2021/11/03 02:23:38;;;;;;;30.27;7.30;;;11.00;91.30;;;;;;5039999;28;20053;-60
2021/11/03 02:26:09;;;;;;;23.23;6.55;;;11.00;91.30;;;;;;5043025;28;20029;-61
2021/11/03 02:28:35;;;;;;;28.05;7.82;;;11.00;91.40;;;;;;5043712;28;20029;-61
2021/11/03 02:31:00;;;;;;;30.80;6.53;;;11.00;91.30;;;;;;5042732;28;20032;-61
2021/11/03 02:33:26;;;;;;;25.55;6.28;;;11.00;91.30;;;;;;5041396;28;20011;-61
2021/11/03 02:36:00;;;;;;;30.23;7.10;;;11.00;91.30;;;;;;5042915;28;20457;-61
2021/11/03 02:38:33;;;;;;;22.55;6.50;;;11.00;91.30;;;;;;5042597;28;20033;-61
2021/11/03 02:41:14;;;;;;;21.92;5.82;;;11.00;91.30;;;;;;5041869;28;20025;-61
2021/11/03 02:44:03;;;;;;;18.50;5.82;;;11.00;91.30;;;;;;5043537;28;20033;-61
2021/11/03 02:46:28;;;;;;;20.73;6.00;;;11.00;91.30;;;;;;5042156;28;20445;-60
2021/11/03 02:48:54;;;;;;;27.58;6.22;;;10.90;91.30;;;;;;5041603;28;20071;-61
2021/11/03 02:51:37;;;;;;;28.45;6.47;;;10.90;91.30;;;;;;5040941;28;20703;-61
2021/11/03 02:54:23;;;;;;;21.50;6.82;;;10.90;91.30;;;;;;5040496;28;20136;-61
2021/11/03 02:56:53;;;;;;;25.30;5.93;;;10.90;91.30;;;;;;5043586;28;20044;-61
2021/11/03 02:59:19;;;;;;;10.93;5.10;;;10.90;91.30;;;;;;5007979;28;20434;-61
2021/11/03 03:01:58;;;;;;;18.88;4.82;;;10.90;91.30;;;;;;5040531;28;20040;-60
2021/11/03 03:04:41;;;;;;;17.50;5.10;;;10.90;91.30;;;;;;5042533;28;20063;-61
2021/11/03 03:07:07;;;;;;;14.10;5.05;;;10.90;91.20;;;;;;5042833;28;20025;-61
2021/11/03 03:09:33;;;;;;;17.63;5.18;;;10.90;91.20;;;;;;5042621;28;20729;-61
2021/11/03 03:12:00;;;;;;;12.88;5.90;;;10.80;91.20;;;;;;5041315;28;20037;-61
2021/11/03 03:14:27;;;;;;;14.05;5.40;;;10.80;91.20;;;;;;5040799;28;20037;-60
2021/11/03 03:16:53;;;;;;;12.73;5.35;;;10.80;91.20;;;;;;5043466;28;20040;-61
2021/11/03 03:19:19;;;;;;;13.77;5.57;;;10.80;91.20;;;;;;5043003;28;20032;-61
2021/11/03 03:21:44;;;;;;;11.02;5.57;;;10.80;91.20;;;;;;5023038;28;20037;-60
2021/11/03 03:24:10;;;;;;;18.23;6.30;;;10.80;91.20;;;;;;5022475;28;20447;-61
2021/11/03 03:26:37;;;;;;;11.82;5.10;;;10.80;91.20;;;;;;5038480;28;21276;-61
2021/11/03 03:29:03;;;;;;;14.38;5.78;;;10.70;91.20;;;;;;5039802;28;20041;-61
2021/11/03 03:31:28;;;;;;;15.55;5.55;;;10.70;91.20;;;;;;5043418;28;20029;-61
2021/11/03 03:33:56;;;;;;;16.83;6.05;;;10.70;91.20;;;;;;5039410;28;20059;-61
2021/11/03 03:36:21;;;;;;;10.73;4.72;;;10.70;91.20;;;;;;5041176;28;20064;-60
2021/11/03 03:38:47;;;;;;;13.75;5.78;;;10.70;91.10;;;;;;5039872;28;20534;-61
2021/11/03 03:41:13;;;;;;;14.27;4.65;;;10.70;91.20;;;;;;5040675;28;20479;-60
2021/11/03 03:43:38;;;;;;;10.40;5.45;;;10.70;91.20;;;;;;5039640;28;20055;-61
2021/11/03 03:46:04;;;;;;;8.73;5.43;;;10.70;91.20;;;;;;5042981;28;20100;-61
2021/11/03 03:48:30;;;;;;;19.88;5.07;;;10.70;91.20;;;;;;5041386;28;20446;-61
2021/11/03 03:50:55;;;;;;;10.57;5.25;;;10.70;91.10;;;;;;5040771;28;20454;-61
2021/11/03 03:53:21;;;;;;;15.52;6.30;;;10.70;91.20;;;;;;5038140;28;20447;-61
2021/11/03 03:55:48;;;;;;;9.38;5.18;;;10.60;91.10;;;;;;5040414;28;20083;-60
2021/11/03 03:58:13;;;;;;;10.05;5.00;;;10.60;91.10;;;;;;5042258;28;20033;-61
2021/11/03 04:00:39;;;;;;;16.60;5.53;;;10.70;91.10;;;;;;5042298;28;20029;-61
2021/11/03 04:03:06;;;;;;;15.90;5.18;;;10.60;91.10;;;;;;5041612;28;20114;-61
2021/11/03 04:05:31;;;;;;;8.18;5.03;;;10.60;91.10;;;;;;5040756;28;20090;-61
2021/11/03 04:07:57;;;;;;;13.98;5.00;;;10.60;91.10;;;;;;5035846;28;20029;-61
2021/11/03 04:10:22;;;;;;;9.55;5.20;;;10.60;91.10;;;;;;5039428;28;20037;-60
2021/11/03 04:12:48;;;;;;;11.15;4.57;;;10.60;91.10;;;;;;5038351;28;20060;-61
2021/11/03 04:15:14;;;;;;;8.07;5.05;;;10.60;91.20;;;;;;5041377;28;20032;-61
2021/11/03 04:17:40;;;;;;;14.65;5.63;;;10.60;91.20;;;;;;5039543;28;20032;-61
2021/11/03 04:20:06;;;;;;;12.38;5.95;;;10.60;91.20;;;;;;5039639;28;20060;-61
2021/11/03 04:22:31;;;;;;;9.02;5.60;;;10.60;91.20;;;;;;5039882;28;20056;-60
2021/11/03 04:24:57;;;;;;;11.38;5.32;;;10.60;91.20;;;;;;5043605;28;20412;-61
2021/11/03 04:27:23;;;;;;;12.05;6.07;;;10.60;91.20;;;;;;5038569;28;20025;-61
2021/11/03 04:29:48;;;;;;;14.10;5.85;;;10.60;91.20;;;;;;5042311;28;20127;-60
2021/11/03 04:32:13;;;;;;;11.93;6.07;;;10.60;91.20;;;;;;5040475;28;20512;-61
2021/11/03 04:34:39;;;;;;;12.35;5.43;;;10.50;91.20;;;;;;5007603;28;20037;-61
2021/11/03 04:37:05;;;;;;;10.20;5.70;;;10.60;91.20;;;;;;5039606;28;20037;-61
2021/11/03 04:39:30;;;;;;;9.10;5.43;;;10.50;91.20;;;;;;5038754;28;20037;-61
2021/11/03 04:41:56;;;;;;;13.65;6.53;;;10.50;91.20;;;;;;5041589;28;20040;-61
2021/11/03 04:44:21;;;;;;;9.90;5.72;;;10.50;91.20;;;;;;5040453;28;20388;-61
2021/11/03 04:46:47;;;;;;;10.90;5.25;;;10.50;91.20;;;;;;5041434;28;20056;-61
2021/11/03 04:49:12;;;;;;;10.52;5.13;;;10.50;91.20;;;;;;5041051;28;20048;-61
2021/11/03 04:51:38;;;;;;;13.85;5.35;;;10.50;91.10;;;;;;5039456;28;20029;-61
2021/11/03 04:54:03;;;;;;;13.38;5.40;;;10.50;91.10;;;;;;5040701;28;20009;-61
2021/11/03 04:56:30;;;;;;;11.18;4.95;;;10.50;91.20;;;;;;5039944;28;20467;-61
2021/11/03 04:58:56;;;;;;;14.95;5.32;;;10.60;91.20;;;;;;5039643;28;20392;-60
2021/11/03 05:01:22;;;;;;;12.80;5.30;;;10.50;91.20;;;;;;5039788;28;20041;-61
2021/11/03 05:03:48;;;;;;;8.02;5.05;;;10.50;91.20;;;;;;5023896;28;20057;-61
2021/11/03 05:06:16;;;;;;;10.63;5.13;;;10.50;91.20;;;;;;5039137;28;20508;-61
2021/11/03 05:08:42;;;;;;;8.02;5.10;;;10.50;91.20;;;;;;5037032;28;20389;-61
2021/11/03 05:11:08;;;;;;;13.15;4.90;;;10.50;91.20;;;;;;5039117;28;20021;-61
2021/11/03 05:13:33;;;;;;;6.35;4.50;;;10.40;91.20;;;;;;5038638;28;20075;-61
2021/11/03 05:15:59;;;;;;;10.82;4.78;;;10.50;91.20;;;;;;5041673;28;20115;-61
2021/11/03 05:18:25;;;;;;;9.32;5.30;;;10.40;91.20;;;;;;5039956;28;20372;-61
2021/11/03 05:20:50;;;;;;;12.35;4.50;;;10.40;91.20;;;;;;5041924;28;20045;-60
2021/11/03 05:23:16;;;;;;;9.70;4.85;;;10.40;91.20;;;;;;5022808;28;20052;-61
2021/11/03 05:25:42;;;;;;;10.35;4.18;;;10.40;91.20;;;;;;5037910;28;20640;-61
2021/11/03 05:28:07;;;;;;;9.07;4.53;;;10.40;91.20;;;;;;5039835;28;20056;-61
2021/11/03 05:30:33;;;;;;;9.48;5.28;;;10.40;91.20;;;;;;5041340;28;20052;-60
2021/11/03 05:32:58;;;;;;;9.80;4.70;;;10.30;91.20;;;;;;5041033;28;20531;-61
2021/11/03 05:35:24;;;;;;;13.13;5.07;;;10.30;91.20;;;;;;5039480;28;20030;-61
2021/11/03 05:37:50;;;;;;;10.63;4.78;;;10.30;91.20;;;;;;5039476;28;20132;-61
2021/11/03 05:40:19;;;;;;;9.65;3.90;;;10.30;91.50;;;;;;5021322;28;20507;-61
2021/11/03 05:42:45;;;;;;;4.80;3.83;;;10.30;91.30;;;;;;5039139;28;20021;-61
2021/11/03 05:45:10;;;;;;;7.65;3.95;;;10.20;91.20;;;;;;5041544;28;20040;-60
2021/11/03 05:47:36;;;;;;;8.13;4.53;;;10.30;91.30;;;;;;5039128;28;20083;-61
2021/11/03 05:50:02;;;;;;;10.45;4.80;;;10.30;91.30;;;;;;5039633;28;20049;-61
2021/11/03 05:52:28;;;;;;;5.40;3.80;;;10.20;91.30;;;;;;5037758;28;20071;-61
2021/11/03 05:54:53;;;;;;;9.35;4.50;;;10.20;91.30;;;;;;5041258;28;20044;-61
2021/11/03 05:57:25;;;;;;;9.75;4.32;;;10.20;91.30;;;;;;5038287;28;20448;-61
2021/11/03 05:59:52;;;;;;;8.07;4.15;;;10.10;91.30;;;;;;5042226;28;20040;-61
2021/11/03 06:02:17;;;;;;;8.45;4.50;;;10.10;91.30;;;;;;5042309;28;21511;-61
2021/11/03 06:04:43;;;;;;;8.95;4.32;;;10.10;91.30;;;;;;5044822;28;20536;-60
2021/11/03 06:07:10;;;;;;;7.85;4.35;;;10.10;91.30;;;;;;5044087;28;20492;-60
2021/11/03 06:09:35;;;;;;;5.55;4.07;;;10.10;91.30;;;;;;5043343;28;20020;-61
2021/11/03 06:12:01;;;;;;;9.45;4.22;;;10.10;91.30;;;;;;5042630;28;20437;-61
2021/11/03 06:14:26;;;;;;;7.03;4.22;;;10.00;91.30;;;;;;5043166;28;20408;-61
2021/11/03 06:16:52;;;;;;;5.80;4.30;;;10.10;91.30;;;;;;5026612;28;20294;-61
2021/11/03 06:19:17;;;;;;;7.18;4.22;;;10.00;91.30;;;;;;5044159;28;20123;-61
2021/11/03 06:21:43;;;;;;;5.97;3.75;;;10.00;91.40;;;;;;5045773;28;20041;-61
2021/11/03 06:24:08;;;;;;;7.90;4.57;;;10.00;91.40;;;;;;5044347;28;20541;-61
2021/11/03 06:26:34;;;;;;;11.18;4.47;;;10.00;91.40;;;;;;5043363;28;20553;-60
2021/11/03 06:28:59;;;;;;;7.63;4.50;;;10.00;91.40;;;;;;5039006;28;20563;-61
2021/11/03 06:31:25;;;;;;;11.38;4.75;;;10.00;91.40;;;;;;5041897;28;20472;-61
2021/11/03 06:33:50;;;;;;;7.68;4.20;;;10.00;91.40;;;;;;5024661;28;20762;-60
2021/11/03 06:36:16;;;;;;;10.82;4.00;;;10.00;91.40;;;;;;5042325;28;20275;-61
2021/11/03 06:38:42;;;;;;;6.72;4.28;;;9.90;91.40;;;;;;5041387;28;20048;-60
2021/11/03 06:41:08;;;;;;;5.93;4.07;;;9.90;91.40;;;;;;5041831;28;20025;-61
2021/11/03 06:43:33;;;;;;;5.30;3.97;;;9.90;91.40;;;;;;5041764;28;20041;-61
2021/11/03 06:45:59;;;;;;;5.55;4.10;;;9.90;91.40;;;;;;5042926;28;20040;-61
2021/11/03 06:48:24;;;;;;;8.48;4.47;;;9.90;91.50;;;;;;5045775;28;20025;-61
2021/11/03 06:50:51;;;;;;;9.48;4.85;;;9.90;91.50;;;;;;5043522;28;20201;-61
2021/11/03 06:53:19;;;;;;;7.45;4.32;;;9.90;91.50;;;;;;5038451;28;20032;-60
2021/11/03 06:55:46;;;;;;;6.45;4.35;;;9.90;91.40;;;;;;5041052;28;20082;-61
2021/11/03 06:58:12;;;;;;;7.60;3.97;;;9.90;91.40;;;;;;5038530;28;20061;-60
2021/11/03 07:00:39;;;;;;;6.22;4.38;;;9.80;91.40;;;;;;5039403;28;20056;-61
2021/11/03 07:03:05;;;;;;;7.10;4.43;;;9.90;91.40;;;;;;5040950;28;20040;-61
2021/11/03 07:05:31;;;;;;;5.93;4.28;;;9.90;91.40;;;;;;5042109;28;20036;-61
2021/11/03 07:07:57;;;;;;;6.93;4.63;;;9.90;91.40;;;;;;5038213;28;20554;-60
2021/11/03 07:10:29;;;;;;;6.80;4.68;;;9.90;91.40;;;;;;5038369;28;20053;-61
2021/11/03 07:12:55;;;;;;;9.43;4.22;;;9.90;91.40;;;;;;5016071;28;20492;-60
2021/11/03 07:15:20;;;;;;;8.27;4.57;;;9.90;91.50;;;;;;5039099;28;20075;-61
2021/11/03 07:17:46;;;;;;;8.27;4.65;;;9.90;91.50;;;;;;5019972;28;20032;-61
2021/11/03 07:20:12;;;;;;;7.38;4.13;;;9.90;91.50;;;;;;5018144;28;20063;-61
2021/11/03 07:22:37;;;;;;;13.60;5.07;;;9.80;91.50;;;;;;5035374;28;20163;-60
2021/11/03 07:25:04;;;;;;;9.52;5.50;;;9.90;91.60;;;;;;5020099;28;20028;-61
2021/11/03 07:27:29;;;;;;;10.77;4.97;;;9.90;91.70;;;;;;5036190;28;20047;-60
2021/11/03 07:29:55;;;;;;;8.52;5.05;;;9.90;91.70;;;;;;5019949;28;20029;-61
2021/11/03 07:32:20;;;;;;;13.10;4.97;;;9.90;91.70;;;;;;5033115;28;20049;-61
2021/11/03 07:34:46;;;;;;;14.98;5.13;;;9.90;91.70;;;;;;5035769;28;20025;-61
2021/11/03 07:37:11;;;;;;;12.90;5.30;;;9.90;91.60;;;;;;5031469;28;20619;-61
2021/11/03 07:39:37;;;;;;;9.70;5.45;;;10.00;91.60;;;;;;5031564;28;20361;-60
2021/11/03 07:42:02;;;;;;;13.13;6.30;;;9.90;91.60;;;;;;5031600;28;20033;-61
2021/11/03 07:44:28;;;;;;;12.20;4.88;;;9.90;91.70;;;;;;5031935;28;20123;-61
2021/11/03 07:46:54;;;;;;;10.57;5.15;;;9.90;91.70;;;;;;5015296;28;20431;-60
2021/11/03 07:49:19;;;;;;;9.48;5.03;;;9.90;91.70;;;;;;5035789;28;20508;-61
2021/11/03 07:51:45;;;;;;;16.98;5.88;;;9.90;91.70;;;;;;5037177;28;20021;-61
2021/11/03 07:54:10;;;;;;;15.93;6.38;;;9.90;91.70;;;;;;5038817;28;20108;-61
2021/11/03 07:56:37;;;;;;;11.95;5.90;;;9.90;91.80;;;;;;5037530;28;20029;-60
2021/11/03 07:59:04;;;;;;;12.98;6.03;;;9.90;91.80;;;;;;5034167;28;20068;-61
2021/11/03 08:01:30;;;;;;;16.38;5.40;;;9.90;91.80;;;;;;5017262;28;20053;-61
2021/11/03 08:03:55;;;;;;;12.90;6.30;;;9.90;91.80;;;;;;5036989;28;20040;-61
2021/11/03 08:06:22;;;;;;;20.38;6.85;;;10.00;91.80;;;;;;5017279;28;20045;-61
2021/11/03 08:08:56;;;;;;;16.48;6.03;;;10.00;91.90;;;;;;5034082;28;20099;-61
2021/11/03 08:11:22;;;;;;;21.80;5.93;;;10.00;91.80;;;;;;5029947;28;20032;-61
2021/11/03 08:13:48;;;;;;;13.88;6.15;;;10.00;91.80;;;;;;5036588;28;20698;-61
2021/11/03 08:16:13;;;;;;;14.02;6.15;;;10.00;91.70;;;;;;5004502;28;20045;-61
2021/11/03 08:18:41;;;;;;;15.93;5.55;;;10.00;91.80;;;;;;5040581;28;20032;-61
2021/11/03 08:21:07;;;;;;;9.60;5.78;;;10.00;91.80;;;;;;5028273;28;20092;-61
2021/11/03 08:23:32;;;;;;;14.52;5.82;;;10.00;91.80;;;;;;5014598;28;20156;-61
2021/11/03 08:25:58;;;;;;;16.77;6.55;;;10.00;91.80;;;;;;5028895;28;20045;-61
2021/11/03 08:28:23;;;;;;;14.27;7.03;;;10.00;91.80;;;;;;5029778;28;20050;-61
2021/11/03 08:30:50;;;;;;;12.88;6.40;;;10.00;91.80;;;;;;5032194;28;20062;-61
2021/11/03 08:33:19;;;;;;;17.42;7.13;;;10.10;91.80;;;;;;5015685;28;20582;-61
2021/11/03 08:35:46;;;;;;;21.38;7.35;;;10.10;91.80;;;;;;5036883;28;20360;-61
2021/11/03 08:38:16;;;;;;;41.13;8.15;;;10.10;91.80;;;;;;5040263;28;20151;-62
2021/11/03 08:40:44;;;;;;;35.33;8.00;;;10.10;91.80;;;;;;5024286;28;20109;-61
2021/11/03 08:43:13;;;;;;;24.00;7.63;;;10.10;91.80;;;;;;5038393;28;20025;-61
2021/11/03 08:45:38;;;;;;;21.80;7.00;;;10.20;91.80;;;;;;5007626;28;20479;-61
2021/11/03 08:48:05;;;;;;;24.80;7.07;;;10.20;91.80;;;;;;5040422;28;20037;-61
2021/11/03 08:50:32;;;;;;;42.88;9.25;;;10.20;92.00;;;;;;5037846;28;20112;-61
2021/11/03 08:52:58;;;;;;;37.88;8.45;;;10.20;91.70;;;;;;5035704;28;20563;-61
2021/11/03 08:55:23;;;;;;;32.83;7.57;;;10.20;91.70;;;;;;5039105;28;20023;-61
2021/11/03 08:57:49;;;;;;;39.47;8.52;;;10.30;91.70;;;;;;5038818;28;20044;-61
2021/11/03 09:00:20;;;;;;;20.40;7.25;;;10.30;91.70;;;;;;5037759;28;20037;-61
2021/11/03 09:02:47;;;;;;;30.92;6.97;;;10.30;91.70;;;;;;5037263;28;20036;-62
2021/11/03 09:05:13;;;;;;;25.20;7.00;;;10.30;91.60;;;;;;5022561;28;20033;-62
2021/11/03 09:07:38;;;;;;;49.30;9.43;;;10.30;91.60;;;;;;5032010;28;20032;-61
2021/11/03 09:10:06;;;;;;;34.83;8.07;;;10.30;91.50;;;;;;5034765;28;20575;-61
2021/11/03 09:12:32;;;;;;;32.83;7.10;;;10.40;91.40;;;;;;5027012;28;20128;-62
2021/11/03 09:14:58;;;;;;;31.50;6.80;;;10.40;91.40;;;;;;5032470;28;20037;-61
2021/11/03 09:17:25;;;;;;;34.70;6.75;;;10.40;91.40;;;;;;5013031;28;20036;-62
2021/11/03 09:19:51;;;;;;;25.77;6.53;;;10.40;91.30;;;;;;5030975;28;20064;-61
2021/11/03 09:22:17;;;;;;;38.50;7.15;;;10.40;91.30;;;;;;5032311;28;20124;-61
2021/11/03 09:24:42;;;;;;;36.67;7.25;;;10.50;91.30;;;;;;5034467;28;20041;-61
2021/11/03 09:27:14;;;;;;;27.77;7.07;;;10.50;91.30;;;;;;5035524;28;20240;-61
2021/11/03 09:29:50;;;;;;;41.15;6.95;;;10.50;91.20;;;;;;5037978;28;20124;-61
2021/11/03 09:32:18;;;;;;;51.75;7.43;;;10.50;91.20;;;;;;5014275;28;20397;-62
2021/11/03 09:34:45;;;;;;;92.22;9.80;;;10.50;91.20;;;;;;5034508;28;20055;-62
2021/11/03 09:37:12;;;;;;;159.57;13.80;;;10.60;91.50;;;;;;5028983;28;20365;-62
2021/11/03 09:39:38;;;;;;;49.90;8.63;;;10.70;91.80;;;;;;5042081;28;20052;-62
2021/11/03 09:42:04;;;;;;;340.13;22.55;;;10.70;91.30;;;;;;5041494;28;20029;-62
2021/11/03 09:44:32;;;;;;;153.10;12.75;;;10.70;91.60;;;;;;5020718;28;20072;-62
2021/11/03 09:47:14;;;;;;;33.90;8.38;;;10.80;91.50;;;;;;5035842;28;20056;-61
2021/11/03 09:49:48;;;;;;;34.75;6.85;;;10.70;91.20;;;;;;5037947;28;20727;-61
2021/11/03 09:52:29;;;;;;;46.13;8.43;;;10.80;91.10;;;;;;5024960;28;20017;-61
2021/11/03 09:54:57;;;;;;;38.65;7.45;;;10.80;91.00;;;;;;5037877;28;20029;-62
2021/11/03 09:57:39;;;;;;;36.22;6.20;;;10.80;91.30;;;;;;5041261;28;20039;-61
2021/11/03 10:00:31;;;;;;;26.10;6.57;;;10.90;91.10;;;;;;5036546;28;20118;-61
2021/11/03 10:03:08;;;;;;;39.25;7.65;;;10.80;91.10;;;;;;5037762;28;20040;-61
2021/11/03 10:05:47;;;;;;;23.35;5.95;;;10.80;91.10;;;;;;5021854;28;20025;-61
2021/11/03 10:08:22;;;;;;;26.52;7.25;;;10.90;91.10;;;;;;5036970;28;20036;-61
2021/11/03 10:10:52;;;;;;;27.38;6.65;;;10.90;91.10;;;;;;5038350;28;20029;-61
2021/11/03 10:13:23;;;;;;;48.53;7.88;;;10.90;91.10;;;;;;5037578;28;20595;-61
2021/11/03 10:16:14;;;;;;;46.10;8.10;;;10.90;91.00;;;;;;5007155;28;20136;-61
2021/11/03 10:18:52;;;;;;;40.65;7.35;;;11.00;91.10;;;;;;5028571;28;20065;-61
2021/11/03 10:21:30;;;;;;;15.05;6.28;;;11.00;91.00;;;;;;5039917;28;20112;-61
2021/11/03 10:23:58;;;;;;;25.65;7.05;;;11.00;91.00;;;;;;5036000;28;20229;-61
2021/11/03 10:26:26;;;;;;;24.15;6.53;;;11.00;91.00;;;;;;5039969;28;20463;-61
2021/11/03 10:29:08;;;;;;;24.67;6.35;;;11.00;91.00;;;;;;5038101;28;20502;-62
2021/11/03 10:31:43;;;;;;;22.55;6.47;;;11.00;90.90;;;;;;5027722;28;20051;-62
2021/11/03 10:34:35;;;;;;;28.00;6.87;;;11.10;91.00;;;;;;5037841;28;20029;-62
2021/11/03 10:37:09;;;;;;;22.73;5.88;;;11.10;91.30;;;;;;5039314;28;20139;-61
2021/11/03 10:39:58;;;;;;;20.05;6.28;;;11.10;90.90;;;;;;5040102;28;20041;-61
2021/11/03 10:42:25;;;;;;;25.40;6.93;;;11.10;90.90;;;;;;5037163;28;20204;-59
2021/11/03 10:44:54;;;;;;;88.57;10.68;;;11.10;90.90;;;;;;5033479;28;20376;-62
2021/11/03 10:47:22;;;;;;;55.10;8.98;;;11.10;90.90;;;;;;5013261;28;20880;-62
2021/11/03 10:50:04;;;;;;;64.07;11.00;;;11.10;90.90;;;;;;5035439;28;20036;-62
2021/11/03 10:52:33;;;;;;;34.00;7.13;;;11.10;91.00;;;;;;5036064;28;20060;-62
2021/11/03 10:55:01;;;;;;;40.78;8.43;;;11.10;91.00;;;;;;5038256;28;20033;-61
2021/11/03 10:57:39;;;;;;;47.05;8.38;;;11.10;91.00;;;;;;5037046;28;20061;-61
2021/11/03 11:00:26;;;;;;;38.53;8.38;;;11.20;91.10;;;;;;5022167;28;20388;-61
2021/11/03 11:02:55;;;;;;;211.02;20.42;;;11.20;91.20;;;;;;5030202;28;20041;-64
2021/11/03 11:05:21;;;;;;;41.90;9.02;;;11.20;91.20;;;;;;5021440;28;20893;-61
2021/11/03 11:07:51;;;;;;;28.67;7.57;;;11.20;91.20;;;;;;5017914;28;20440;-62
2021/11/03 11:10:38;;;;;;;29.30;7.60;;;11.20;91.20;;;;;;5021865;28;20037;-62
2021/11/03 11:13:04;;;;;;;38.22;7.88;;;11.30;91.20;;;;;;5033327;28;20087;-61
2021/11/03 11:15:48;;;;;;;37.15;7.32;;;11.20;91.30;;;;;;5035085;28;20095;-62
2021/11/03 11:18:35;;;;;;;39.30;7.43;;;11.20;91.40;;;;;;5035410;28;20227;-62
2021/11/03 11:21:04;;;;;;;29.52;7.65;;;11.20;91.50;;;;;;5014805;28;20492;-65
2021/11/03 11:23:42;;;;;;;25.15;7.15;;;11.20;91.60;;;;;;5018843;28;20044;-61
2021/11/03 11:26:23;;;;;;;34.00;6.80;;;11.20;91.70;;;;;;5037514;28;20039;-61
2021/11/03 11:29:18;;;;;;;47.55;7.82;;;11.30;91.80;;;;;;5036841;28;20041;-61
2021/11/03 11:32:24;;;;;;;50.25;7.78;;;11.30;91.80;;;;;;5029546;28;20132;-61
2021/11/03 11:34:55;;;;;;;53.70;7.90;;;11.30;91.90;;;;;;5035194;28;20044;-60
2021/11/03 11:37:32;;;;;;;63.15;8.82;;;11.30;91.90;;;;;;5039238;28;20119;-62
2021/11/03 11:40:12;;;;;;;44.97;7.43;;;11.30;92.00;;;;;;5020977;28;20115;-61
2021/11/03 11:42:41;;;;;;;47.25;7.40;;;11.40;92.00;;;;;;5040567;28;20049;-61
2021/11/03 11:45:27;;;;;;;45.10;6.50;;;11.40;92.00;;;;;;5013354;28;20179;-61
2021/11/03 11:48:02;;;;;;;50.05;7.55;;;11.30;92.00;;;;;;5034064;28;20162;-61
2021/11/03 11:50:40;;;;;;;72.17;9.03;;;11.30;92.00;;;;;;5018295;28;20021;-61
2021/11/03 11:53:30;;;;;;;65.25;9.25;;;11.30;92.00;;;;;;5009911;28;20146;-61
2021/11/03 11:56:12;;;;;;;63.22;8.52;;;11.30;91.90;;;;;;5009436;28;20413;-61
2021/11/03 11:58:48;;;;;;;66.63;8.40;;;11.30;91.80;;;;;;5018325;28;20111;-61
2021/11/03 12:01:22;;;;;;;69.30;8.63;;;11.30;91.90;;;;;;5032619;28;20086;-62
2021/11/03 12:04:00;;;;;;;47.53;8.07;;;11.30;92.10;;;;;;5031336;28;20055;-61
2021/11/03 12:06:51;;;;;;;34.95;7.00;;;11.30;92.00;;;;;;5032900;28;20040;-62
2021/11/03 12:09:48;;;;;;;39.58;7.13;;;11.40;92.00;;;;;;5028354;28;20036;-61
2021/11/03 12:12:13;;;;;;;56.97;7.22;;;11.40;92.00;;;;;;5029894;28;20644;-62
2021/11/03 12:14:57;;;;;;;35.63;6.03;;;11.30;92.00;;;;;;5032044;28;20045;-60
2021/11/03 12:17:56;;;;;;;61.72;7.65;;;11.40;92.00;;;;;;5019531;28;20070;-61
2021/11/03 12:20:25;;;;;;;61.97;7.57;;;11.40;92.10;;;;;;5016910;28;20052;-62
2021/11/03 12:22:52;;;;;;;38.60;7.07;;;11.30;92.10;;;;;;5032886;28;20148;-60
2021/11/03 12:25:17;;;;;;;65.68;7.72;;;11.40;92.10;;;;;;5028567;28;20057;-60
2021/11/03 12:27:45;;;;;;;55.03;7.88;;;11.30;92.10;;;;;;5034169;28;20037;-61
2021/11/03 12:30:18;;;;;;;68.78;9.65;;;11.40;92.30;;;;;;5028118;28;20112;-60
2021/11/03 12:32:43;;;;;;;70.03;9.05;;;11.40;92.20;;;;;;5031602;28;20055;-60
2021/11/03 12:35:18;;;;;;;75.25;9.70;;;11.40;92.30;;;;;;5033838;28;20508;-60
2021/11/03 12:37:57;;;;;;;70.80;10.10;;;11.40;92.30;;;;;;5028769;28;20041;-62
2021/11/03 12:40:36;;;;;;;83.78;10.65;;;11.40;92.40;;;;;;5031962;28;20040;-60
2021/11/03 12:43:16;;;;;;;87.85;10.32;;;11.40;92.40;;;;;;5033811;28;20124;-60
2021/11/03 12:45:54;;;;;;;74.93;9.15;;;11.40;92.50;;;;;;5028724;28;20574;-60
2021/11/03 12:48:22;;;;;;;62.53;8.85;;;11.40;92.40;;;;;;5032637;28;20177;-60